^^

Nearby METAR Reports

 

EGHH - Bournemouth Airp, United Kingdom
Distance from station: S 10mi, 17km
Updated: 16/01/2018 16:50
Light rain, Showers, Partly cloudy
Light rain, Showers, Partly cloudy
 Wind from W
Wind: W 17 mph , 28 km/h
Temperature: 5°C
Wind Chill: 1°C
Dew Point: 3°C
Humidity: 87%
Barometer: 997 hPa
Summary: Light rain, Showers
Clouds: Partly cloudy
Visibility: 6 miles , 10 km
Cloud details: Few Clouds 457 m
Partly cloudy 1219 m
2018/01/16 16:50 EGHH 161650Z 26015KT 9999 -SHRA FEW015 SCT040 05/03 Q0997
EGDM - Boscombe Down, United Kingdom
Distance from station: N 16mi, 26km
Updated: 16/01/2018 16:50
Light rain, Showers, Mostly cloudy
Light rain, Showers, Mostly cloudy
 Wind from WSW
Wind: WSW 13 mph , 20 km/h
Temperature: 3°C
Wind Chill: -2°C
Dew Point: 2°C
Humidity: 93%
Barometer: 996 hPa
Summary: Light rain, Showers
Clouds: Mostly cloudy
Visibility: 6 miles , 10 km
Cloud details: Partly cloudy 457 m
Mostly cloudy 1219 m
Mostly cloudy 2134 m
2018/01/16 16:50 EGDM 161650Z 25011KT 9999 -SHRA SCT015CB BKN040 BKN070 03/02 Q0996 WHT TEMPO 27018G28KT 4000 SHRASN BKN012CB GRN
 
EGVP - Middle Wallop, United Kingdom
Distance from station: NE 17mi, 27km
Updated: 16/01/2018 16:37
Light rain, Showers, Mostly cloudy
Light rain, Showers, Mostly cloudy
 Wind from W
Wind: W 18 mph , 30 km/h, Gust: 30 mph , 48 km/h
Temperature: 4°C
Wind Chill: -1°C
Dew Point: 2°C
Humidity: 87%
Barometer: 996 hPa
Summary: Light rain, Showers
Clouds: Mostly cloudy
Visibility: 6 miles , 10 km
Cloud details: Mostly cloudy 488 m
Mostly cloudy 1524 m
2018/01/16 16:37 EGVP 161637Z 26016G26KT 9999 -SHRA BKN016CB BKN050 04/02 Q0996 WHT TEMPO 9999 NSW FEW020 BLU
EGHI - Southampton Wx C, United Kingdom
Distance from station: E 19mi, 31km
Updated: 16/01/2018 16:50
Light rain, Partly cloudy
Light rain, Partly cloudy
 Wind from WSW
Wind: WSW 13 mph , 20 km/h, Gust: 24 mph , 39 km/h
Temperature: 5°C
Wind Chill: 1°C
Dew Point: 1°C
Humidity: 76%
Barometer: 997 hPa
Summary: Light rain
Clouds: Partly cloudy
Visibility: 6 miles , 9 km
Cloud details: Few Clouds 610 m
Partly cloudy 762 m
2018/01/16 16:50 EGHI 161650Z 25011G21KT 220V280 9000 -RA FEW020 SCT025 05/01 Q0997
 
EGDY - Yeovilton (navy), United Kingdom
Distance from station: W 36mi, 58km
Updated: 16/01/2018 16:50
Mostly cloudy
Mostly cloudy
 Wind from WSW
Wind: WSW 15 mph , 24 km/h, Gust: 26 mph , 43 km/h
Temperature: 5°C
Wind Chill: 1°C
Dew Point: 2°C
Humidity: 81%
Barometer: 996 hPa
Clouds: Mostly cloudy
Visibility: 6 miles , 10 km
Cloud details: Few Clouds 610 m
Mostly cloudy 1067 m
2018/01/16 16:50 EGDY 161650Z 24013G23KT 9999 FEW020CB BKN035 05/02 Q0996 BLU TEMPO 5000 SHRA BKN020CB WHT
EGUO - Colerne Raf, United Kingdom
Distance from station: NNW 41mi, 66km
Updated: 19/11/2017 06:50
NOT Current
Partly cloudy
Partly cloudy
 Wind from W
Wind: W 6 mph , 9 km/h
Temperature: 3°C
Wind Chill: 0°C
Dew Point: 3°C
Humidity: 100%
Barometer: 1023 hPa
Clouds: Partly cloudy
Visibility: 6 miles , 10 km
Cloud details: Few Clouds 1067 m
Partly cloudy 5486 m
2017/11/19 06:50 EGUO 190650Z 26005KT 9999 FEW035 SCT180 03/03 Q1023 BLU NOSIG
 
EGVO - Odiham Raf, United Kingdom
Distance from station: ENE 42mi, 68km
Updated: 16/01/2018 17:04
Light snow, Showers, Mostly cloudy
Light snow, Showers, Mostly cloudy
 Wind from W
Wind: W 15 mph , 24 km/h
Temperature: 1°C
Wind Chill: -4°C
Dew Point: 0°C
Humidity: 93%
Barometer: 995 hPa
Summary: Light snow, Showers
Clouds: Mostly cloudy
Visibility: 3 miles , 5 km
Cloud details: Mostly cloudy 122 m
Few Clouds 305 m
Mostly cloudy 762 m
2018/01/16 17:04 EGVO 161704Z 27013KT 5000 -SHSN BKN004 FEW010CB BKN025 01/00 Q0995 YLO2 TEMPO 2000 SHSN YLO2
EGGD - Bristol/Lulsgate, United Kingdom
Distance from station: NW 50mi, 81km
Updated: 16/01/2018 16:50
Nearby showers, Mostly cloudy
Nearby showers, Mostly cloudy
 Wind from W
Wind: W 15 mph , 24 km/h
Temperature: 3°C
Wind Chill: -2°C
Dew Point: 2°C
Humidity: 93%
Barometer: 995 hPa
Summary: Nearby Showers
Clouds: Mostly cloudy
Visibility: 6 miles , 10 km
Cloud details: Partly cloudy 396 m
Mostly cloudy 853 m
2018/01/16 16:50 EGGD 161650Z 26013KT 9999 8000W VCSH SCT013CB BKN028 03/02 Q0995